»·PEaware :: N8DL KMFR-KPDX

N8DL :: KMFR-KPDX

FLIGHT INFORMATION

Flight Status: Arrived
Operator: Privately registered:
United States
More flights under this callsign
Pilot: Dean L. (8400)
Aircraft: CESSNA 550 CITATION 2/S2/BRAVO
(C550)
More flights by this aircraft type
Origin: KMFR Rogue Valley Intl-Medford
United States
Destination: KPDX Portland Intl
United States
More flights between these airports :: More routes between these airports
Route: +OED MOXEE PORTL TMBRS2
File this flight plan on PilotEdge
Remarks:
Altitude:
(Current/Filed)
32,000ft
Speed:
(Current/Filed)
425kts
Departed: 05-Sep-18 03:34 PM
Arrived: 05-Sep-18 04:18 PM
Distance/Time
Traveled:
193nm/0:43
Distance/Time
To Go:
Arrived

Flight Plot

Page will automatically refresh every two minutes.

Flight plan parsing failed; only flown route is shown


Map Options




Map Legend


Flown Route
Filed Route
Departure Airport
Arrival Airport
Navaid (VOR, NDB)
Fix

Horizontal Profiles

Position Reports

Time Latitude Longitude Heading Altitude Ground
Speed
05-Sep-18 15:22 42.369418 -122.873644 251 1338ft 0kts
05-Sep-18 15:23 42.369418 -122.873644 251 1338ft 0kts
05-Sep-18 15:24 42.369418 -122.873644 251 1338ft 0kts
05-Sep-18 15:25 42.369417 -122.873647 251 1338ft 0kts
05-Sep-18 15:26 42.369417 -122.873651 251 1338ft 0kts
05-Sep-18 15:27 42.369416 -122.873654 251 1338ft 0kts
05-Sep-18 15:28 42.369415 -122.873658 251 1338ft 0kts
05-Sep-18 15:29 42.369414 -122.873661 251 1338ft 0kts
05-Sep-18 15:30 42.369413 -122.873666 251 1338ft 0kts
05-Sep-18 15:31 42.366685 -122.870465 157 1338ft 28kts
05-Sep-18 15:32 42.363654 -122.868766 146 1338ft 0kts
05-Sep-18 15:33 42.363652 -122.868765 146 1338ft 0kts
05-Sep-18 15:34 42.363649 -122.868762 146 1338ft 0kts
05-Sep-18 15:35 42.363542 -122.868633 121 1338ft 3kts
05-Sep-18 15:36 42.373249 -122.872394 336 1406ft 138kts
05-Sep-18 15:37 42.422638 -122.889280 4 4303ft 238kts
05-Sep-18 15:38 42.486778 -122.882449 342 8067ft 225kts
05-Sep-18 15:39 42.529075 -122.949440 230 8405ft 297kts
05-Sep-18 15:40 42.446435 -122.989680 174 8580ft 391kts
05-Sep-18 15:41 42.374653 -123.061098 266 10209ft 306kts
05-Sep-18 15:42 42.427860 -123.127769 343 11074ft 276kts
05-Sep-18 15:43 42.503303 -123.134048 14 11361ft 274kts
05-Sep-18 15:44 42.575590 -123.099272 21 11546ft 276kts
05-Sep-18 15:45 42.650384 -123.064091 12 12497ft 323kts
05-Sep-18 15:46 42.733243 -123.082806 314 15698ft 312kts
05-Sep-18 15:47 42.817928 -123.095376 16 18327ft 339kts
05-Sep-18 15:48 42.908431 -123.050342 19 20701ft 352kts
05-Sep-18 15:49 43.001277 -123.001262 19 22864ft 364kts
05-Sep-18 15:50 43.097174 -122.949731 19 24945ft 376kts
05-Sep-18 15:51 43.196040 -122.897478 17 26789ft 385kts
05-Sep-18 15:52 43.298252 -122.849875 14 28206ft 391kts
05-Sep-18 15:53 43.403635 -122.810432 9 29307ft 396kts
05-Sep-18 15:54 43.512543 -122.782939 3 30197ft 398kts
05-Sep-18 15:55 43.622943 -122.773305 355 30925ft 399kts
05-Sep-18 15:56 43.732737 -122.790386 343 31563ft 396kts
05-Sep-18 15:57 43.838242 -122.833193 353 32028ft 406kts
05-Sep-18 15:58 43.951841 -122.801828 9 32024ft 424kts
05-Sep-18 15:59 44.068415 -122.771372 5 32023ft 425kts
05-Sep-18 16:00 44.185667 -122.749880 0 31967ft 425kts
05-Sep-18 16:01 44.305829 -122.737862 0 30864ft 440kts
05-Sep-18 16:02 44.428913 -122.725638 0 29765ft 443kts
05-Sep-18 16:03 44.552252 -122.713395 1 28623ft 446kts
05-Sep-18 16:04 44.669929 -122.680868 6 27435ft 415kts
05-Sep-18 16:05 44.782330 -122.688427 358 26246ft 397kts
05-Sep-18 16:06 44.885155 -122.679890 1 24725ft 355kts
05-Sep-18 16:07 44.981690 -122.670209 1 22830ft 342kts
05-Sep-18 16:08 45.077672 -122.660490 1 20143ft 352kts
05-Sep-18 16:08 45.157951 -122.652281 2 17630ft 330kts
05-Sep-18 16:09 45.247341 -122.639668 16 13349ft 317kts
05-Sep-18 16:10 45.320134 -122.579369 33 10336ft 278kts
05-Sep-18 16:12 45.394502 -122.512403 34 7127ft 270kts
05-Sep-18 16:13 45.426267 -122.433555 73 4701ft 181kts
05-Sep-18 16:13 45.454980 -122.411254 352 3398ft 139kts
05-Sep-18 16:14 45.496429 -122.428427 336 2490ft 159kts
05-Sep-18 16:15 45.532398 -122.464823 307 2019ft 156kts
05-Sep-18 16:16 45.554843 -122.517430 296 1261ft 126kts
05-Sep-18 16:17 45.571227 -122.559434 297 395ft 114kts
05-Sep-18 16:18 45.584405 -122.594031 300 21ft 54kts
05-Sep-18 16:19 45.588667 -122.601950 339 21ft 17kts
05-Sep-18 16:20 45.589923 -122.601470 56 21ft 0kts
05-Sep-18 16:21 45.589924 -122.601466 56 21ft 0kts
05-Sep-18 16:22 45.589926 -122.601463 56 21ft 0kts

Navigation Log

Ident Type
Flight plan parsing failed, navigation log unavailable